sensor_id;sensor_type;location;lat;lon;timestamp;P1;durP1;ratioP1;P2;durP2;ratioP2
50056;SDS011;36875;49.468;11.200;2023-09-18T00:01:35;4.40;;;3.00;;
50056;SDS011;36875;49.468;11.200;2023-09-18T00:04:01;4.20;;;3.55;;
50056;SDS011;36875;49.468;11.200;2023-09-18T00:06:26;4.28;;;2.85;;
50056;SDS011;36875;49.468;11.200;2023-09-18T00:08:52;3.60;;;3.10;;
50056;SDS011;36875;49.468;11.200;2023-09-18T00:11:20;4.00;;;3.28;;
50056;SDS011;36875;49.468;11.200;2023-09-18T00:13:46;4.05;;;3.08;;
50056;SDS011;36875;49.468;11.200;2023-09-18T00:16:11;3.88;;;3.20;;
50056;SDS011;36875;49.468;11.200;2023-09-18T00:18:38;3.72;;;2.85;;
50056;SDS011;36875;49.468;11.200;2023-09-18T00:21:03;4.63;;;3.40;;
50056;SDS011;36875;49.468;11.200;2023-09-18T00:23:29;4.95;;;3.35;;
50056;SDS011;36875;49.468;11.200;2023-09-18T00:25:56;4.65;;;3.25;;
50056;SDS011;36875;49.468;11.200;2023-09-18T00:28:22;4.07;;;3.15;;
50056;SDS011;36875;49.468;11.200;2023-09-18T00:30:48;3.67;;;3.00;;
50056;SDS011;36875;49.468;11.200;2023-09-18T00:33:15;4.45;;;3.35;;
50056;SDS011;36875;49.468;11.200;2023-09-18T00:35:44;3.47;;;3.05;;
50056;SDS011;36875;49.468;11.200;2023-09-18T00:38:10;3.80;;;3.10;;
50056;SDS011;36875;49.468;11.200;2023-09-18T00:40:36;4.50;;;3.28;;
50056;SDS011;36875;49.468;11.200;2023-09-18T00:43:01;4.13;;;3.20;;
50056;SDS011;36875;49.468;11.200;2023-09-18T00:45:28;3.63;;;3.10;;
50056;SDS011;36875;49.468;11.200;2023-09-18T00:47:54;4.25;;;3.17;;
50056;SDS011;36875;49.468;11.200;2023-09-18T00:50:20;4.10;;;3.08;;
50056;SDS011;36875;49.468;11.200;2023-09-18T00:52:46;3.90;;;2.85;;
50056;SDS011;36875;49.468;11.200;2023-09-18T00:55:13;3.97;;;2.92;;
50056;SDS011;36875;49.468;11.200;2023-09-18T00:57:40;4.18;;;3.10;;
50056;SDS011;36875;49.468;11.200;2023-09-18T01:00:06;3.85;;;3.20;;
50056;SDS011;36875;49.468;11.200;2023-09-18T01:02:34;3.53;;;2.90;;
50056;SDS011;36875;49.468;11.200;2023-09-18T01:04:59;3.58;;;3.05;;
50056;SDS011;36875;49.468;11.200;2023-09-18T01:07:25;4.18;;;3.10;;
50056;SDS011;36875;49.468;11.200;2023-09-18T01:09:51;4.30;;;3.17;;
50056;SDS011;36875;49.468;11.200;2023-09-18T01:12:17;4.72;;;3.28;;
50056;SDS011;36875;49.468;11.200;2023-09-18T01:14:49;3.57;;;3.07;;
50056;SDS011;36875;49.468;11.200;2023-09-18T01:17:21;4.25;;;3.38;;
50056;SDS011;36875;49.468;11.200;2023-09-18T01:19:48;4.07;;;3.30;;
50056;SDS011;36875;49.468;11.200;2023-09-18T01:22:14;4.35;;;3.22;;
50056;SDS011;36875;49.468;11.200;2023-09-18T01:24:43;4.25;;;3.45;;
50056;SDS011;36875;49.468;11.200;2023-09-18T01:27:15;3.20;;;2.80;;
50056;SDS011;36875;49.468;11.200;2023-09-18T01:29:44;4.18;;;3.05;;
50056;SDS011;36875;49.468;11.200;2023-09-18T01:32:09;4.30;;;3.20;;
50056;SDS011;36875;49.468;11.200;2023-09-18T01:34:36;4.40;;;3.22;;
50056;SDS011;36875;49.468;11.200;2023-09-18T01:37:04;3.78;;;3.30;;
50056;SDS011;36875;49.468;11.200;2023-09-18T01:39:33;4.10;;;3.10;;
50056;SDS011;36875;49.468;11.200;2023-09-18T01:42:02;3.13;;;2.80;;
50056;SDS011;36875;49.468;11.200;2023-09-18T01:44:32;3.95;;;3.15;;
50056;SDS011;36875;49.468;11.200;2023-09-18T01:46:58;3.65;;;2.95;;
50056;SDS011;36875;49.468;11.200;2023-09-18T01:49:28;3.53;;;3.00;;
50056;SDS011;36875;49.468;11.200;2023-09-18T01:51:54;5.43;;;3.27;;
50056;SDS011;36875;49.468;11.200;2023-09-18T01:54:20;3.78;;;2.95;;
50056;SDS011;36875;49.468;11.200;2023-09-18T01:56:45;4.30;;;3.13;;
50056;SDS011;36875;49.468;11.200;2023-09-18T01:59:12;3.80;;;3.20;;
50056;SDS011;36875;49.468;11.200;2023-09-18T02:01:38;4.57;;;3.20;;
50056;SDS011;36875;49.468;11.200;2023-09-18T02:04:04;4.28;;;3.47;;
50056;SDS011;36875;49.468;11.200;2023-09-18T02:06:29;4.05;;;3.17;;
50056;SDS011;36875;49.468;11.200;2023-09-18T02:08:55;4.22;;;3.10;;
50056;SDS011;36875;49.468;11.200;2023-09-18T02:11:20;4.25;;;3.35;;
50056;SDS011;36875;49.468;11.200;2023-09-18T02:13:46;4.22;;;3.38;;
50056;SDS011;36875;49.468;11.200;2023-09-18T02:16:13;4.65;;;3.25;;
50056;SDS011;36875;49.468;11.200;2023-09-18T02:18:38;3.90;;;3.03;;
50056;SDS011;36875;49.468;11.200;2023-09-18T02:21:04;4.25;;;3.50;;
50056;SDS011;36875;49.468;11.200;2023-09-18T02:23:29;3.90;;;3.13;;
50056;SDS011;36875;49.468;11.200;2023-09-18T02:25:55;3.40;;;3.00;;
50056;SDS011;36875;49.468;11.200;2023-09-18T02:28:21;4.85;;;3.30;;
50056;SDS011;36875;49.468;11.200;2023-09-18T02:30:46;4.13;;;3.13;;
50056;SDS011;36875;49.468;11.200;2023-09-18T02:33:13;3.95;;;3.30;;
50056;SDS011;36875;49.468;11.200;2023-09-18T02:35:40;4.15;;;3.22;;
50056;SDS011;36875;49.468;11.200;2023-09-18T02:38:05;4.30;;;3.30;;
50056;SDS011;36875;49.468;11.200;2023-09-18T02:40:31;4.05;;;3.05;;
50056;SDS011;36875;49.468;11.200;2023-09-18T02:42:56;3.67;;;2.92;;
50056;SDS011;36875;49.468;11.200;2023-09-18T02:45:22;4.45;;;3.03;;
50056;SDS011;36875;49.468;11.200;2023-09-18T02:47:48;3.42;;;3.13;;
50056;SDS011;36875;49.468;11.200;2023-09-18T02:50:14;3.78;;;3.13;;
50056;SDS011;36875;49.468;11.200;2023-09-18T02:52:40;4.72;;;3.20;;
50056;SDS011;36875;49.468;11.200;2023-09-18T02:55:05;3.85;;;3.38;;
50056;SDS011;36875;49.468;11.200;2023-09-18T02:57:31;3.90;;;3.00;;
50056;SDS011;36875;49.468;11.200;2023-09-18T02:59:57;4.20;;;3.20;;
50056;SDS011;36875;49.468;11.200;2023-09-18T03:02:23;4.07;;;3.10;;
50056;SDS011;36875;49.468;11.200;2023-09-18T03:04:49;4.40;;;3.17;;
50056;SDS011;36875;49.468;11.200;2023-09-18T03:07:16;3.92;;;3.10;;
50056;SDS011;36875;49.468;11.200;2023-09-18T03:09:41;5.13;;;3.20;;
50056;SDS011;36875;49.468;11.200;2023-09-18T03:12:07;4.85;;;3.30;;
50056;SDS011;36875;49.468;11.200;2023-09-18T03:14:33;4.32;;;2.97;;
50056;SDS011;36875;49.468;11.200;2023-09-18T03:16:59;3.85;;;2.85;;
50056;SDS011;36875;49.468;11.200;2023-09-18T03:19:24;3.58;;;2.97;;
50056;SDS011;36875;49.468;11.200;2023-09-18T03:21:52;4.40;;;3.20;;
50056;SDS011;36875;49.468;11.200;2023-09-18T03:24:18;3.75;;;3.15;;
50056;SDS011;36875;49.468;11.200;2023-09-18T03:26:44;5.85;;;3.40;;
50056;SDS011;36875;49.468;11.200;2023-09-18T03:29:10;3.67;;;3.00;;
50056;SDS011;36875;49.468;11.200;2023-09-18T03:31:35;4.20;;;3.20;;
50056;SDS011;36875;49.468;11.200;2023-09-18T03:34:01;3.50;;;3.05;;
50056;SDS011;36875;49.468;11.200;2023-09-18T03:36:26;5.13;;;3.13;;
50056;SDS011;36875;49.468;11.200;2023-09-18T03:38:52;4.32;;;3.20;;
50056;SDS011;36875;49.468;11.200;2023-09-18T03:41:19;3.33;;;2.95;;
50056;SDS011;36875;49.468;11.200;2023-09-18T03:43:44;3.65;;;3.25;;
50056;SDS011;36875;49.468;11.200;2023-09-18T03:46:10;3.72;;;3.22;;
50056;SDS011;36875;49.468;11.200;2023-09-18T03:48:35;5.90;;;3.33;;
50056;SDS011;36875;49.468;11.200;2023-09-18T03:51:02;4.60;;;3.30;;
50056;SDS011;36875;49.468;11.200;2023-09-18T03:53:29;4.70;;;3.47;;
50056;SDS011;36875;49.468;11.200;2023-09-18T03:55:54;3.90;;;3.33;;
50056;SDS011;36875;49.468;11.200;2023-09-18T03:58:21;4.65;;;3.20;;
50056;SDS011;36875;49.468;11.200;2023-09-18T04:00:46;4.03;;;3.25;;
50056;SDS011;36875;49.468;11.200;2023-09-18T04:03:12;4.82;;;3.20;;
50056;SDS011;36875;49.468;11.200;2023-09-18T04:05:38;4.43;;;3.50;;
50056;SDS011;36875;49.468;11.200;2023-09-18T04:08:03;3.88;;;3.05;;
50056;SDS011;36875;49.468;11.200;2023-09-18T04:10:29;4.25;;;3.45;;
50056;SDS011;36875;49.468;11.200;2023-09-18T04:12:54;4.47;;;3.35;;
50056;SDS011;36875;49.468;11.200;2023-09-18T04:15:22;4.93;;;3.40;;
50056;SDS011;36875;49.468;11.200;2023-09-18T04:17:48;4.40;;;3.67;;
50056;SDS011;36875;49.468;11.200;2023-09-18T04:20:14;4.30;;;3.10;;
50056;SDS011;36875;49.468;11.200;2023-09-18T04:22:42;3.88;;;3.15;;
50056;SDS011;36875;49.468;11.200;2023-09-18T04:25:09;4.10;;;3.13;;
50056;SDS011;36875;49.468;11.200;2023-09-18T04:27:35;5.00;;;3.33;;
50056;SDS011;36875;49.468;11.200;2023-09-18T04:30:00;4.18;;;3.53;;
50056;SDS011;36875;49.468;11.200;2023-09-18T04:32:28;4.18;;;3.35;;
50056;SDS011;36875;49.468;11.200;2023-09-18T04:34:54;4.10;;;3.25;;
50056;SDS011;36875;49.468;11.200;2023-09-18T04:37:20;3.83;;;3.20;;
50056;SDS011;36875;49.468;11.200;2023-09-18T04:39:45;3.88;;;3.17;;
50056;SDS011;36875;49.468;11.200;2023-09-18T04:42:11;3.58;;;3.08;;
50056;SDS011;36875;49.468;11.200;2023-09-18T04:44:36;4.25;;;3.17;;
50056;SDS011;36875;49.468;11.200;2023-09-18T04:47:02;4.95;;;3.45;;
50056;SDS011;36875;49.468;11.200;2023-09-18T04:49:29;4.18;;;3.28;;
50056;SDS011;36875;49.468;11.200;2023-09-18T04:51:55;5.20;;;3.50;;
50056;SDS011;36875;49.468;11.200;2023-09-18T04:54:20;4.35;;;3.60;;
50056;SDS011;36875;49.468;11.200;2023-09-18T04:56:46;5.30;;;3.35;;
50056;SDS011;36875;49.468;11.200;2023-09-18T04:59:11;7.15;;;4.00;;
50056;SDS011;36875;49.468;11.200;2023-09-18T05:01:37;7.38;;;3.97;;
50056;SDS011;36875;49.468;11.200;2023-09-18T05:04:03;8.98;;;4.50;;
50056;SDS011;36875;49.468;11.200;2023-09-18T05:06:30;6.30;;;4.28;;
50056;SDS011;36875;49.468;11.200;2023-09-18T05:08:55;7.88;;;4.35;;
50056;SDS011;36875;49.468;11.200;2023-09-18T05:11:22;8.05;;;4.05;;
50056;SDS011;36875;49.468;11.200;2023-09-18T05:13:48;10.32;;;4.90;;
50056;SDS011;36875;49.468;11.200;2023-09-18T05:16:14;8.38;;;4.40;;
50056;SDS011;36875;49.468;11.200;2023-09-18T05:18:40;7.97;;;4.28;;
50056;SDS011;36875;49.468;11.200;2023-09-18T05:21:06;7.30;;;4.65;;
50056;SDS011;36875;49.468;11.200;2023-09-18T05:23:33;9.40;;;4.60;;
50056;SDS011;36875;49.468;11.200;2023-09-18T05:25:59;12.20;;;4.93;;
50056;SDS011;36875;49.468;11.200;2023-09-18T05:28:25;8.85;;;4.75;;
50056;SDS011;36875;49.468;11.200;2023-09-18T05:30:51;7.45;;;4.43;;
50056;SDS011;36875;49.468;11.200;2023-09-18T05:33:16;8.43;;;4.63;;
50056;SDS011;36875;49.468;11.200;2023-09-18T05:35:42;9.38;;;4.70;;
50056;SDS011;36875;49.468;11.200;2023-09-18T05:38:09;10.52;;;5.15;;
50056;SDS011;36875;49.468;11.200;2023-09-18T05:40:37;10.45;;;5.20;;
50056;SDS011;36875;49.468;11.200;2023-09-18T05:43:03;10.63;;;6.05;;
50056;SDS011;36875;49.468;11.200;2023-09-18T05:45:28;11.23;;;5.30;;
50056;SDS011;36875;49.468;11.200;2023-09-18T05:47:55;11.30;;;4.68;;
50056;SDS011;36875;49.468;11.200;2023-09-18T05:50:29;9.18;;;5.68;;
50056;SDS011;36875;49.468;11.200;2023-09-18T05:52:56;9.90;;;5.45;;
50056;SDS011;36875;49.468;11.200;2023-09-18T05:55:27;9.18;;;5.25;;
50056;SDS011;36875;49.468;11.200;2023-09-18T05:57:54;7.30;;;5.03;;
50056;SDS011;36875;49.468;11.200;2023-09-18T06:00:20;8.30;;;5.30;;
50056;SDS011;36875;49.468;11.200;2023-09-18T06:02:46;9.85;;;5.47;;
50056;SDS011;36875;49.468;11.200;2023-09-18T06:05:12;7.95;;;5.03;;
50056;SDS011;36875;49.468;11.200;2023-09-18T06:07:41;8.77;;;5.15;;
50056;SDS011;36875;49.468;11.200;2023-09-18T06:10:06;7.97;;;5.10;;
50056;SDS011;36875;49.468;11.200;2023-09-18T06:12:32;10.95;;;5.20;;
50056;SDS011;36875;49.468;11.200;2023-09-18T06:14:59;9.40;;;5.25;;
50056;SDS011;36875;49.468;11.200;2023-09-18T06:17:25;10.38;;;5.28;;
50056;SDS011;36875;49.468;11.200;2023-09-18T06:19:50;9.63;;;5.35;;
50056;SDS011;36875;49.468;11.200;2023-09-18T06:22:17;7.43;;;5.25;;
50056;SDS011;36875;49.468;11.200;2023-09-18T06:24:42;10.93;;;5.30;;
50056;SDS011;36875;49.468;11.200;2023-09-18T06:27:08;9.48;;;5.38;;
50056;SDS011;36875;49.468;11.200;2023-09-18T06:29:34;10.80;;;5.20;;
50056;SDS011;36875;49.468;11.200;2023-09-18T06:32:01;8.55;;;5.07;;
50056;SDS011;36875;49.468;11.200;2023-09-18T06:34:27;8.93;;;5.28;;
50056;SDS011;36875;49.468;11.200;2023-09-18T06:36:55;9.05;;;5.20;;
50056;SDS011;36875;49.468;11.200;2023-09-18T06:39:21;7.72;;;5.20;;
50056;SDS011;36875;49.468;11.200;2023-09-18T06:41:48;8.52;;;5.57;;
50056;SDS011;36875;49.468;11.200;2023-09-18T06:44:14;9.15;;;5.50;;
50056;SDS011;36875;49.468;11.200;2023-09-18T06:46:39;8.32;;;4.93;;
50056;SDS011;36875;49.468;11.200;2023-09-18T06:49:07;10.30;;;5.30;;
50056;SDS011;36875;49.468;11.200;2023-09-18T06:51:32;7.68;;;4.85;;
50056;SDS011;36875;49.468;11.200;2023-09-18T06:53:58;8.57;;;5.13;;
50056;SDS011;36875;49.468;11.200;2023-09-18T06:56:24;8.50;;;4.72;;
50056;SDS011;36875;49.468;11.200;2023-09-18T06:58:49;9.73;;;5.22;;
50056;SDS011;36875;49.468;11.200;2023-09-18T07:01:16;9.55;;;4.82;;
50056;SDS011;36875;49.468;11.200;2023-09-18T07:03:43;7.38;;;5.15;;
50056;SDS011;36875;49.468;11.200;2023-09-18T07:06:10;8.80;;;5.50;;
50056;SDS011;36875;49.468;11.200;2023-09-18T07:08:35;7.32;;;4.60;;
50056;SDS011;36875;49.468;11.200;2023-09-18T07:11:01;8.63;;;4.72;;
50056;SDS011;36875;49.468;11.200;2023-09-18T07:13:26;6.93;;;4.47;;
50056;SDS011;36875;49.468;11.200;2023-09-18T07:15:52;8.63;;;5.00;;
50056;SDS011;36875;49.468;11.200;2023-09-18T07:18:17;6.63;;;4.78;;
50056;SDS011;36875;49.468;11.200;2023-09-18T07:20:43;9.32;;;5.07;;
50056;SDS011;36875;49.468;11.200;2023-09-18T07:23:10;6.82;;;4.60;;
50056;SDS011;36875;49.468;11.200;2023-09-18T07:25:35;5.53;;;3.83;;
50056;SDS011;36875;49.468;11.200;2023-09-18T07:28:03;6.03;;;4.40;;
50056;SDS011;36875;49.468;11.200;2023-09-18T07:30:29;6.18;;;4.28;;
50056;SDS011;36875;49.468;11.200;2023-09-18T07:32:55;7.57;;;4.20;;
50056;SDS011;36875;49.468;11.200;2023-09-18T07:35:24;8.60;;;4.45;;
50056;SDS011;36875;49.468;11.200;2023-09-18T07:37:49;6.53;;;4.75;;
50056;SDS011;36875;49.468;11.200;2023-09-18T07:40:16;5.90;;;4.63;;
50056;SDS011;36875;49.468;11.200;2023-09-18T07:42:42;6.03;;;4.60;;
50056;SDS011;36875;49.468;11.200;2023-09-18T07:45:11;7.13;;;4.70;;
50056;SDS011;36875;49.468;11.200;2023-09-18T07:47:37;7.82;;;4.47;;
50056;SDS011;36875;49.468;11.200;2023-09-18T07:50:03;9.25;;;4.60;;
50056;SDS011;36875;49.468;11.200;2023-09-18T07:52:29;6.53;;;4.43;;
50056;SDS011;36875;49.468;11.200;2023-09-18T07:54:56;7.68;;;4.20;;
50056;SDS011;36875;49.468;11.200;2023-09-18T07:57:24;6.10;;;4.30;;
50056;SDS011;36875;49.468;11.200;2023-09-18T07:59:51;5.65;;;4.60;;
50056;SDS011;36875;49.468;11.200;2023-09-18T08:02:16;5.85;;;4.10;;
50056;SDS011;36875;49.468;11.200;2023-09-18T08:04:42;5.95;;;4.47;;
50056;SDS011;36875;49.468;11.200;2023-09-18T08:07:08;5.78;;;4.15;;
50056;SDS011;36875;49.468;11.200;2023-09-18T08:09:34;5.85;;;4.40;;
50056;SDS011;36875;49.468;11.200;2023-09-18T08:12:04;5.53;;;4.22;;
50056;SDS011;36875;49.468;11.200;2023-09-18T08:14:31;6.03;;;4.43;;
50056;SDS011;36875;49.468;11.200;2023-09-18T08:16:57;5.82;;;4.00;;
50056;SDS011;36875;49.468;11.200;2023-09-18T08:19:25;6.32;;;3.95;;
50056;SDS011;36875;49.468;11.200;2023-09-18T08:21:52;5.75;;;4.35;;
50056;SDS011;36875;49.468;11.200;2023-09-18T08:24:19;7.03;;;4.60;;
50056;SDS011;36875;49.468;11.200;2023-09-18T08:26:44;7.47;;;4.10;;
50056;SDS011;36875;49.468;11.200;2023-09-18T08:29:10;7.20;;;4.65;;
50056;SDS011;36875;49.468;11.200;2023-09-18T08:31:36;7.22;;;4.28;;
50056;SDS011;36875;49.468;11.200;2023-09-18T08:34:02;7.72;;;4.20;;
50056;SDS011;36875;49.468;11.200;2023-09-18T08:36:27;5.13;;;3.90;;
50056;SDS011;36875;49.468;11.200;2023-09-18T08:38:55;5.30;;;4.00;;
50056;SDS011;36875;49.468;11.200;2023-09-18T08:41:21;7.32;;;4.20;;
50056;SDS011;36875;49.468;11.200;2023-09-18T08:46:17;5.53;;;3.72;;
50056;SDS011;36875;49.468;11.200;2023-09-18T08:48:45;6.63;;;4.25;;
50056;SDS011;36875;49.468;11.200;2023-09-18T08:51:11;4.78;;;3.83;;
50056;SDS011;36875;49.468;11.200;2023-09-18T08:53:38;5.22;;;3.63;;
50056;SDS011;36875;49.468;11.200;2023-09-18T08:56:04;5.88;;;3.88;;
50056;SDS011;36875;49.468;11.200;2023-09-18T08:58:32;6.70;;;4.10;;
50056;SDS011;36875;49.468;11.200;2023-09-18T09:01:02;7.00;;;4.33;;
50056;SDS011;36875;49.468;11.200;2023-09-18T09:03:31;6.22;;;4.55;;
50056;SDS011;36875;49.468;11.200;2023-09-18T09:06:00;8.50;;;4.40;;
50056;SDS011;36875;49.468;11.200;2023-09-18T09:08:27;6.30;;;3.95;;
50056;SDS011;36875;49.468;11.200;2023-09-18T09:10:52;6.22;;;3.90;;
50056;SDS011;36875;49.468;11.200;2023-09-18T09:13:18;6.63;;;3.63;;
50056;SDS011;36875;49.468;11.200;2023-09-18T09:15:44;6.63;;;4.25;;
50056;SDS011;36875;49.468;11.200;2023-09-18T09:18:11;8.18;;;3.70;;
50056;SDS011;36875;49.468;11.200;2023-09-18T09:20:37;7.28;;;4.20;;
50056;SDS011;36875;49.468;11.200;2023-09-18T09:23:05;5.80;;;3.85;;
50056;SDS011;36875;49.468;11.200;2023-09-18T09:25:33;6.60;;;4.18;;
50056;SDS011;36875;49.468;11.200;2023-09-18T09:28:00;6.00;;;3.90;;
50056;SDS011;36875;49.468;11.200;2023-09-18T09:30:28;5.07;;;3.78;;
50056;SDS011;36875;49.468;11.200;2023-09-18T09:32:55;8.43;;;3.80;;
50056;SDS011;36875;49.468;11.200;2023-09-18T09:35:21;8.98;;;4.15;;
50056;SDS011;36875;49.468;11.200;2023-09-18T09:37:49;6.43;;;3.63;;
50056;SDS011;36875;49.468;11.200;2023-09-18T09:40:17;6.65;;;3.65;;
50056;SDS011;36875;49.468;11.200;2023-09-18T09:42:44;6.10;;;3.88;;
50056;SDS011;36875;49.468;11.200;2023-09-18T09:45:11;7.95;;;3.38;;
50056;SDS011;36875;49.468;11.200;2023-09-18T09:47:38;6.28;;;3.60;;
50056;SDS011;36875;49.468;11.200;2023-09-18T09:50:07;8.15;;;3.30;;
50056;SDS011;36875;49.468;11.200;2023-09-18T09:52:34;7.80;;;3.30;;
50056;SDS011;36875;49.468;11.200;2023-09-18T09:55:00;8.20;;;3.30;;
50056;SDS011;36875;49.468;11.200;2023-09-18T09:57:28;8.00;;;3.35;;
50056;SDS011;36875;49.468;11.200;2023-09-18T09:59:55;6.18;;;3.45;;
50056;SDS011;36875;49.468;11.200;2023-09-18T10:02:33;6.20;;;3.40;;
50056;SDS011;36875;49.468;11.200;2023-09-18T10:05:00;7.35;;;3.80;;
50056;SDS011;36875;49.468;11.200;2023-09-18T10:07:26;8.38;;;3.47;;
50056;SDS011;36875;49.468;11.200;2023-09-18T10:09:52;5.88;;;3.20;;
50056;SDS011;36875;49.468;11.200;2023-09-18T10:12:18;6.47;;;3.60;;
50056;SDS011;36875;49.468;11.200;2023-09-18T10:14:50;7.53;;;3.05;;
50056;SDS011;36875;49.468;11.200;2023-09-18T10:17:21;8.93;;;2.90;;
50056;SDS011;36875;49.468;11.200;2023-09-18T10:19:49;7.15;;;3.03;;
50056;SDS011;36875;49.468;11.200;2023-09-18T10:22:27;6.38;;;2.90;;
50056;SDS011;36875;49.468;11.200;2023-09-18T10:24:59;11.70;;;3.38;;
50056;SDS011;36875;49.468;11.200;2023-09-18T10:27:34;5.32;;;2.92;;
50056;SDS011;36875;49.468;11.200;2023-09-18T10:30:05;7.13;;;3.20;;
50056;SDS011;36875;49.468;11.200;2023-09-18T10:32:36;7.22;;;3.22;;
50056;SDS011;36875;49.468;11.200;2023-09-18T10:35:04;5.18;;;2.67;;
50056;SDS011;36875;49.468;11.200;2023-09-18T10:37:31;6.20;;;3.38;;
50056;SDS011;36875;49.468;11.200;2023-09-18T10:39:57;6.03;;;2.95;;
50056;SDS011;36875;49.468;11.200;2023-09-18T10:42:25;5.72;;;2.75;;
50056;SDS011;36875;49.468;11.200;2023-09-18T10:44:53;6.93;;;2.67;;
50056;SDS011;36875;49.468;11.200;2023-09-18T10:47:20;5.40;;;2.72;;
50056;SDS011;36875;49.468;11.200;2023-09-18T10:49:48;4.15;;;2.53;;
50056;SDS011;36875;49.468;11.200;2023-09-18T10:52:15;5.68;;;2.72;;
50056;SDS011;36875;49.468;11.200;2023-09-18T10:54:41;5.60;;;2.53;;
50056;SDS011;36875;49.468;11.200;2023-09-18T10:57:06;4.13;;;2.45;;
50056;SDS011;36875;49.468;11.200;2023-09-18T10:59:32;6.03;;;2.90;;
50056;SDS011;36875;49.468;11.200;2023-09-18T11:02:02;8.63;;;3.00;;
50056;SDS011;36875;49.468;11.200;2023-09-18T11:04:31;5.35;;;2.90;;
50056;SDS011;36875;49.468;11.200;2023-09-18T11:07:03;8.80;;;3.30;;
50056;SDS011;36875;49.468;11.200;2023-09-18T11:09:30;6.65;;;2.90;;
50056;SDS011;36875;49.468;11.200;2023-09-18T11:12:02;6.65;;;2.60;;
50056;SDS011;36875;49.468;11.200;2023-09-18T11:14:40;5.25;;;2.58;;
50056;SDS011;36875;49.468;11.200;2023-09-18T11:20:04;6.38;;;3.35;;
50056;SDS011;36875;49.468;11.200;2023-09-18T11:22:35;5.68;;;2.25;;
50056;SDS011;36875;49.468;11.200;2023-09-18T11:28:06;6.90;;;2.80;;
50056;SDS011;36875;49.468;11.200;2023-09-18T11:30:34;5.72;;;2.45;;
50056;SDS011;36875;49.468;11.200;2023-09-18T11:33:01;5.20;;;2.17;;
50056;SDS011;36875;49.468;11.200;2023-09-18T11:35:29;4.43;;;2.05;;
50056;SDS011;36875;49.468;11.200;2023-09-18T11:38:05;5.85;;;2.28;;
50056;SDS011;36875;49.468;11.200;2023-09-18T11:40:32;6.47;;;2.42;;
50056;SDS011;36875;49.468;11.200;2023-09-18T11:43:18;5.60;;;2.30;;
50056;SDS011;36875;49.468;11.200;2023-09-18T11:45:49;4.93;;;2.10;;
50056;SDS011;36875;49.468;11.200;2023-09-18T11:48:16;4.35;;;2.03;;
50056;SDS011;36875;49.468;11.200;2023-09-18T11:50:45;4.53;;;2.03;;
50056;SDS011;36875;49.468;11.200;2023-09-18T11:53:14;5.10;;;1.60;;
50056;SDS011;36875;49.468;11.200;2023-09-18T11:55:40;7.30;;;2.00;;
50056;SDS011;36875;49.468;11.200;2023-09-18T11:58:06;5.22;;;2.03;;
50056;SDS011;36875;49.468;11.200;2023-09-18T12:00:34;5.18;;;1.63;;
50056;SDS011;36875;49.468;11.200;2023-09-18T12:03:12;7.88;;;2.28;;
50056;SDS011;36875;49.468;11.200;2023-09-18T12:05:42;4.03;;;1.75;;
50056;SDS011;36875;49.468;11.200;2023-09-18T12:08:09;5.72;;;1.80;;
50056;SDS011;36875;49.468;11.200;2023-09-18T12:10:36;7.57;;;1.95;;
50056;SDS011;36875;49.468;11.200;2023-09-18T12:13:02;6.78;;;1.65;;
50056;SDS011;36875;49.468;11.200;2023-09-18T12:15:33;5.18;;;1.70;;
50056;SDS011;36875;49.468;11.200;2023-09-18T12:18:04;6.43;;;1.88;;
50056;SDS011;36875;49.468;11.200;2023-09-18T12:20:31;5.53;;;1.70;;
50056;SDS011;36875;49.468;11.200;2023-09-18T12:22:59;6.07;;;1.80;;
50056;SDS011;36875;49.468;11.200;2023-09-18T12:25:26;6.30;;;1.45;;
50056;SDS011;36875;49.468;11.200;2023-09-18T12:27:54;3.90;;;1.60;;
50056;SDS011;36875;49.468;11.200;2023-09-18T12:30:20;6.60;;;1.70;;
50056;SDS011;36875;49.468;11.200;2023-09-18T12:32:47;7.13;;;2.03;;
50056;SDS011;36875;49.468;11.200;2023-09-18T12:35:14;4.53;;;2.00;;
50056;SDS011;36875;49.468;11.200;2023-09-18T12:37:40;8.18;;;1.90;;
50056;SDS011;36875;49.468;11.200;2023-09-18T12:40:06;7.65;;;2.10;;
50056;SDS011;36875;49.468;11.200;2023-09-18T12:42:37;23.92;;;3.35;;
50056;SDS011;36875;49.468;11.200;2023-09-18T12:45:05;20.08;;;3.58;;
50056;SDS011;36875;49.468;11.200;2023-09-18T12:47:32;20.73;;;2.97;;
50056;SDS011;36875;49.468;11.200;2023-09-18T12:50:01;17.27;;;2.65;;
50056;SDS011;36875;49.468;11.200;2023-09-18T12:52:28;19.63;;;3.20;;
50056;SDS011;36875;49.468;11.200;2023-09-18T12:54:54;14.73;;;2.58;;
50056;SDS011;36875;49.468;11.200;2023-09-18T12:57:21;16.73;;;2.95;;
50056;SDS011;36875;49.468;11.200;2023-09-18T12:59:48;15.73;;;2.33;;
50056;SDS011;36875;49.468;11.200;2023-09-18T13:02:19;8.02;;;2.03;;
50056;SDS011;36875;49.468;11.200;2023-09-18T13:04:51;10.60;;;2.10;;
50056;SDS011;36875;49.468;11.200;2023-09-18T13:07:17;8.77;;;2.33;;
50056;SDS011;36875;49.468;11.200;2023-09-18T13:09:43;6.95;;;1.83;;
50056;SDS011;36875;49.468;11.200;2023-09-18T13:12:24;9.00;;;1.85;;
50056;SDS011;36875;49.468;11.200;2023-09-18T13:15:00;7.43;;;1.80;;
50056;SDS011;36875;49.468;11.200;2023-09-18T13:17:36;9.67;;;2.10;;
50056;SDS011;36875;49.468;11.200;2023-09-18T13:20:05;7.35;;;1.98;;
50056;SDS011;36875;49.468;11.200;2023-09-18T13:22:35;8.88;;;2.00;;
50056;SDS011;36875;49.468;11.200;2023-09-18T13:25:00;5.13;;;1.60;;
50056;SDS011;36875;49.468;11.200;2023-09-18T13:27:26;7.90;;;1.88;;
50056;SDS011;36875;49.468;11.200;2023-09-18T13:29:51;9.77;;;1.63;;
50056;SDS011;36875;49.468;11.200;2023-09-18T13:32:19;4.70;;;1.60;;
50056;SDS011;36875;49.468;11.200;2023-09-18T13:34:45;7.82;;;2.17;;
50056;SDS011;36875;49.468;11.200;2023-09-18T13:37:12;6.75;;;1.70;;
50056;SDS011;36875;49.468;11.200;2023-09-18T13:39:39;8.30;;;1.75;;
50056;SDS011;36875;49.468;11.200;2023-09-18T13:42:04;4.65;;;1.40;;
50056;SDS011;36875;49.468;11.200;2023-09-18T13:44:30;5.97;;;1.58;;
50056;SDS011;36875;49.468;11.200;2023-09-18T13:46:56;5.90;;;1.67;;
50056;SDS011;36875;49.468;11.200;2023-09-18T13:49:23;6.43;;;1.52;;
50056;SDS011;36875;49.468;11.200;2023-09-18T13:51:48;4.50;;;1.58;;
50056;SDS011;36875;49.468;11.200;2023-09-18T13:54:15;6.45;;;1.48;;
50056;SDS011;36875;49.468;11.200;2023-09-18T13:56:41;3.03;;;1.20;;
50056;SDS011;36875;49.468;11.200;2023-09-18T13:59:08;7.65;;;1.55;;
50056;SDS011;36875;49.468;11.200;2023-09-18T14:01:35;8.30;;;1.48;;
50056;SDS011;36875;49.468;11.200;2023-09-18T14:04:01;10.00;;;1.55;;
50056;SDS011;36875;49.468;11.200;2023-09-18T14:06:28;5.38;;;1.45;;
50056;SDS011;36875;49.468;11.200;2023-09-18T14:08:53;6.50;;;2.15;;
50056;SDS011;36875;49.468;11.200;2023-09-18T14:11:19;9.27;;;1.80;;
50056;SDS011;36875;49.468;11.200;2023-09-18T14:13:46;7.65;;;1.80;;
50056;SDS011;36875;49.468;11.200;2023-09-18T14:16:12;7.78;;;1.63;;
50056;SDS011;36875;49.468;11.200;2023-09-18T14:18:39;10.10;;;1.75;;
50056;SDS011;36875;49.468;11.200;2023-09-18T14:21:05;9.68;;;1.60;;
50056;SDS011;36875;49.468;11.200;2023-09-18T14:23:32;10.05;;;2.00;;
50056;SDS011;36875;49.468;11.200;2023-09-18T14:25:59;5.85;;;1.67;;
50056;SDS011;36875;49.468;11.200;2023-09-18T14:28:25;9.75;;;1.80;;
50056;SDS011;36875;49.468;11.200;2023-09-18T14:30:51;6.18;;;2.08;;
50056;SDS011;36875;49.468;11.200;2023-09-18T14:33:16;9.45;;;1.73;;
50056;SDS011;36875;49.468;11.200;2023-09-18T14:35:42;9.95;;;1.90;;
50056;SDS011;36875;49.468;11.200;2023-09-18T14:38:07;9.30;;;1.70;;
50056;SDS011;36875;49.468;11.200;2023-09-18T14:40:34;8.40;;;1.40;;